createdAt,value
2022-11-04T00:00:48.593Z,11.52
2022-11-04T00:03:15.690Z,9.77
2022-11-04T00:05:42.546Z,11.43
2022-11-04T00:08:24.691Z,10.45
2022-11-04T00:11:18.033Z,10.43
2022-11-04T00:13:45.851Z,10.23
2022-11-04T00:16:31.748Z,10.73
2022-11-04T00:19:00.666Z,10.73
2022-11-04T00:21:46.994Z,10.77
2022-11-04T00:24:33.094Z,10.93
2022-11-04T00:27:18.425Z,10.30
2022-11-04T00:29:45.498Z,11.45
2022-11-04T00:32:30.865Z,11.45
2022-11-04T00:34:57.751Z,11.40
2022-11-04T00:37:26.292Z,12.20
2022-11-04T00:39:53.258Z,11.27
2022-11-04T00:42:20.057Z,11.35
2022-11-04T00:44:47.033Z,11.05
2022-11-04T00:47:13.870Z,12.02
2022-11-04T00:49:40.814Z,12.15
2022-11-04T00:52:07.689Z,11.10
2022-11-04T00:54:34.551Z,11.98
2022-11-04T00:57:01.558Z,11.32
2022-11-04T00:59:28.564Z,11.60
2022-11-04T01:01:56.125Z,11.55
2022-11-04T01:04:23.240Z,10.65
2022-11-04T01:06:50.046Z,11.80
2022-11-04T01:09:16.965Z,11.23
2022-11-04T01:11:43.862Z,11.20
2022-11-04T01:14:10.749Z,11.15
2022-11-04T01:16:38.103Z,11.05
2022-11-04T01:19:05.071Z,11.38
2022-11-04T01:21:31.930Z,11.38
2022-11-04T01:24:00.310Z,12.13
2022-11-04T01:26:28.871Z,11.18
2022-11-04T01:28:57.768Z,12.00
2022-11-04T01:31:27.721Z,11.40
2022-11-04T01:33:55.917Z,11.35
2022-11-04T01:36:23.461Z,11.90
2022-11-04T01:38:50.657Z,12.30
2022-11-04T01:41:27.034Z,11.25
2022-11-04T01:43:55.493Z,11.80
2022-11-04T01:46:28.411Z,11.55
2022-11-04T01:49:04.899Z,11.85
2022-11-04T01:51:36.602Z,11.57
2022-11-04T01:54:05.957Z,11.60
2022-11-04T01:56:33.289Z,11.52
2022-11-04T01:59:11.608Z,11.18
2022-11-04T02:01:38.626Z,12.93
2022-11-04T02:04:24.089Z,11.10
2022-11-04T02:07:03.579Z,11.27
2022-11-04T02:09:32.574Z,11.18
2022-11-04T02:12:18.433Z,10.98
2022-11-04T02:14:47.995Z,10.15
2022-11-04T02:20:18.958Z,12.45
2022-11-04T02:23:08.146Z,10.65
2022-11-04T02:25:35.745Z,10.55
2022-11-04T02:28:23.602Z,11.07
2022-11-04T02:30:54.849Z,11.73
2022-11-04T02:33:50.433Z,11.05
2022-11-04T02:36:42.013Z,11.70
2022-11-04T02:39:37.280Z,11.65
2022-11-04T02:42:24.502Z,11.63
2022-11-04T02:45:06.776Z,11.18
2022-11-04T02:47:40.188Z,11.82
2022-11-04T02:50:54.412Z,10.70
2022-11-04T02:53:28.237Z,11.07
2022-11-04T02:55:58.614Z,10.90
2022-11-04T02:58:45.374Z,10.93
2022-11-04T03:01:17.377Z,11.88
2022-11-04T03:04:04.333Z,10.90
2022-11-04T03:06:32.678Z,10.93
2022-11-04T03:09:01.965Z,10.27
2022-11-04T03:14:01.913Z,11.48
2022-11-04T03:16:38.333Z,10.80
2022-11-04T03:19:16.380Z,12.15
2022-11-04T03:21:53.484Z,10.95
2022-11-04T03:24:20.558Z,11.90
2022-11-04T03:26:54.792Z,11.50
2022-11-04T03:29:35.034Z,11.85
2022-11-04T03:32:13.986Z,11.57
2022-11-04T03:34:41.187Z,12.52
2022-11-04T03:37:08.486Z,12.70
2022-11-04T03:39:35.553Z,11.63
2022-11-04T03:42:20.340Z,13.38
2022-11-04T03:44:56.533Z,12.52
2022-11-04T03:47:29.436Z,13.75
2022-11-04T03:50:08.085Z,13.13
2022-11-04T03:52:36.036Z,12.80
2022-11-04T03:55:04.636Z,12.27
2022-11-04T03:57:56.518Z,13.18
2022-11-04T04:00:25.413Z,13.50
2022-11-04T04:03:18.288Z,13.13
2022-11-04T04:05:54.104Z,12.90
2022-11-04T04:08:39.067Z,12.30
2022-11-04T04:11:23.309Z,12.20
2022-11-04T04:14:34.766Z,11.88
2022-11-04T04:17:06.830Z,12.85
2022-11-04T04:19:35.020Z,12.32
2022-11-04T04:22:10.968Z,12.50
2022-11-04T04:25:01.526Z,12.60
2022-11-04T04:27:32.387Z,12.23
2022-11-04T04:30:12.459Z,11.65
2022-11-04T04:33:01.745Z,13.00
2022-11-04T04:38:38.470Z,13.48
2022-11-04T04:41:32.929Z,13.20
2022-11-04T04:44:19.982Z,12.65
2022-11-04T04:46:50.703Z,13.95
2022-11-04T04:49:17.652Z,13.30
2022-11-04T04:51:47.364Z,12.85
2022-11-04T04:54:14.386Z,13.05
2022-11-04T04:56:41.278Z,12.88
2022-11-04T04:59:08.399Z,13.30
2022-11-04T05:01:35.405Z,12.93
2022-11-04T05:04:02.326Z,12.77
2022-11-04T05:06:29.165Z,13.02
2022-11-04T05:08:56.190Z,13.88
2022-11-04T05:11:24.575Z,13.68
2022-11-04T05:13:54.127Z,13.88
2022-11-04T05:16:21.037Z,13.98
2022-11-04T05:18:48.152Z,13.55
2022-11-04T05:21:16.436Z,15.20
2022-11-04T05:23:43.417Z,14.20
2022-11-04T05:26:10.357Z,13.43
2022-11-04T05:28:37.175Z,14.15
2022-11-04T05:31:06.434Z,14.90
2022-11-04T05:33:33.594Z,14.82
2022-11-04T05:36:08.622Z,14.20
2022-11-04T05:38:35.877Z,14.95
2022-11-04T05:41:03.477Z,15.07
2022-11-04T05:43:30.605Z,15.23
2022-11-04T05:45:59.965Z,14.55
2022-11-04T05:48:27.384Z,15.15
2022-11-04T05:50:55.145Z,15.48
2022-11-04T05:53:22.235Z,15.80
2022-11-04T05:55:49.365Z,14.88
2022-11-04T05:58:16.216Z,15.15
2022-11-04T06:00:43.370Z,15.05
2022-11-04T06:03:13.534Z,15.02
2022-11-04T06:05:43.287Z,15.32
2022-11-04T06:08:10.688Z,15.27
2022-11-04T06:10:37.964Z,16.50
2022-11-04T06:13:04.785Z,17.67
2022-11-04T06:15:31.785Z,16.58
2022-11-04T06:17:58.678Z,15.75
2022-11-04T06:20:25.537Z,17.23
2022-11-04T06:22:52.537Z,17.20
2022-11-04T06:25:19.478Z,16.73
2022-11-04T06:27:47.108Z,17.27
2022-11-04T06:30:14.063Z,16.88
2022-11-04T06:32:41.113Z,18.20
2022-11-04T06:35:09.060Z,18.90
2022-11-04T06:37:36.179Z,18.88
2022-11-04T06:40:03.152Z,19.10
2022-11-04T06:42:29.993Z,19.33
2022-11-04T06:44:57.009Z,20.33
2022-11-04T06:47:25.125Z,19.55
2022-11-04T06:49:52.247Z,19.48
2022-11-04T06:52:19.146Z,19.85
2022-11-04T06:54:48.095Z,18.38
2022-11-04T06:57:15.048Z,20.27
2022-11-04T06:59:42.041Z,20.08
2022-11-04T07:02:11.770Z,19.88
2022-11-04T07:04:39.989Z,18.98
2022-11-04T07:07:06.988Z,21.25
2022-11-04T07:09:35.538Z,20.73
2022-11-04T07:12:02.565Z,21.48
2022-11-04T07:14:29.419Z,20.58
2022-11-04T07:16:56.301Z,20.88
2022-11-04T07:19:23.219Z,20.95
2022-11-04T07:21:50.027Z,21.42
2022-11-04T07:24:17.082Z,22.08
2022-11-04T07:26:43.913Z,22.40
2022-11-04T07:29:11.227Z,22.52
2022-11-04T07:34:07.362Z,22.50
2022-11-04T07:36:34.369Z,22.63
2022-11-04T07:39:02.106Z,22.88
2022-11-04T07:41:30.164Z,21.92
2022-11-04T07:43:58.872Z,22.48
2022-11-04T07:46:25.904Z,22.90
2022-11-04T07:48:52.806Z,22.13
2022-11-04T07:51:21.025Z,22.77
2022-11-04T07:53:47.988Z,21.52
2022-11-04T07:56:15.944Z,22.52
2022-11-04T07:58:43.145Z,23.30
2022-11-04T08:01:14.210Z,21.52
2022-11-04T08:03:41.501Z,22.15
2022-11-04T08:06:10.618Z,22.17
2022-11-04T08:08:38.251Z,21.45
2022-11-04T08:11:18.844Z,20.77
2022-11-04T08:13:46.673Z,21.90
2022-11-04T08:16:17.811Z,21.90
2022-11-04T08:18:45.072Z,22.23
2022-11-04T08:21:12.918Z,21.45
2022-11-04T08:23:40.326Z,22.02
2022-11-04T08:26:12.342Z,21.15
2022-11-04T08:28:39.468Z,21.80
2022-11-04T08:31:19.388Z,22.30
2022-11-04T08:33:46.754Z,20.90
2022-11-04T08:36:19.969Z,21.08
2022-11-04T08:38:47.248Z,21.08
2022-11-04T08:41:16.895Z,24.02
2022-11-04T08:43:44.206Z,70.32
2022-11-04T08:46:11.742Z,25.67
2022-11-04T08:48:39.933Z,21.70
2022-11-04T08:51:12.677Z,21.95
2022-11-04T08:53:39.527Z,19.55
2022-11-04T08:56:21.728Z,21.05
2022-11-04T08:58:49.557Z,19.55
2022-11-04T09:01:17.825Z,19.63
2022-11-04T09:03:45.175Z,20.70
2022-11-04T09:06:15.538Z,19.67
2022-11-04T09:08:43.558Z,20.52
2022-11-04T09:11:12.722Z,21.20
2022-11-04T09:13:40.269Z,18.77
2022-11-04T09:16:08.461Z,20.45
2022-11-04T09:18:35.794Z,19.65
2022-11-04T09:21:05.054Z,18.95
2022-11-04T09:23:32.809Z,19.27
2022-11-04T09:26:12.047Z,19.50
2022-11-04T09:28:41.211Z,18.95
2022-11-04T09:31:11.277Z,18.88
2022-11-04T09:33:38.805Z,20.08
2022-11-04T09:36:06.364Z,19.55
2022-11-04T09:38:33.465Z,18.45
2022-11-04T09:41:01.096Z,18.08
2022-11-04T09:46:49.529Z,19.00
2022-11-04T09:51:55.639Z,18.15
2022-11-04T09:54:27.131Z,18.27
2022-11-04T09:56:57.876Z,18.45
2022-11-04T09:59:28.989Z,19.33
2022-11-04T10:02:12.035Z,18.88
2022-11-04T10:04:52.155Z,18.25
2022-11-04T10:09:45.811Z,18.00
2022-11-04T10:12:16.378Z,18.55
2022-11-04T10:15:29.248Z,17.50
2022-11-04T10:18:13.078Z,17.42
2022-11-04T10:20:55.101Z,17.73
2022-11-04T10:23:26.618Z,17.50
2022-11-04T10:26:19.589Z,17.42
2022-11-04T10:29:08.788Z,17.85
2022-11-04T10:34:16.008Z,17.08
2022-11-04T10:36:46.887Z,15.15
2022-11-04T10:39:25.991Z,15.75
2022-11-04T10:41:53.220Z,13.98
2022-11-04T10:44:30.401Z,13.10
2022-11-04T10:47:26.580Z,14.30
2022-11-04T10:50:28.209Z,12.80
2022-11-04T10:53:25.128Z,13.63
2022-11-04T10:56:03.077Z,13.15
2022-11-04T10:58:39.746Z,12.35
2022-11-04T11:01:29.627Z,12.88
2022-11-04T11:03:58.047Z,11.65
2022-11-04T11:06:26.955Z,12.40
2022-11-04T11:08:58.267Z,13.85
2022-11-04T11:11:42.272Z,12.25
2022-11-04T11:14:18.937Z,13.05
2022-11-04T11:16:46.012Z,13.57
2022-11-04T11:19:20.018Z,14.23
2022-11-04T11:21:58.371Z,13.95
2022-11-04T11:24:45.081Z,14.32
2022-11-04T11:27:12.395Z,14.93
2022-11-04T11:29:40.489Z,13.68
2022-11-04T11:32:43.613Z,14.30
2022-11-04T11:35:23.785Z,13.90
2022-11-04T11:37:51.069Z,13.98
2022-11-04T11:40:35.083Z,13.05
2022-11-04T11:43:02.613Z,13.18
2022-11-04T11:45:31.469Z,13.35
2022-11-04T11:47:58.951Z,13.07
2022-11-04T11:50:35.276Z,13.43
2022-11-04T11:53:36.546Z,13.20
2022-11-04T11:56:36.249Z,11.85
2022-11-04T12:02:29.074Z,11.40
2022-11-04T12:11:10.217Z,11.60
2022-11-04T12:13:48.816Z,11.35
2022-11-04T12:16:31.538Z,11.03
2022-11-04T12:19:18.828Z,10.73
2022-11-04T12:21:54.735Z,11.43
2022-11-04T12:24:41.310Z,10.85
2022-11-04T12:27:36.693Z,11.60
2022-11-04T12:30:19.403Z,11.45
2022-11-04T12:33:17.769Z,10.57
2022-11-04T12:36:12.372Z,10.30
2022-11-04T12:38:58.694Z,10.65
2022-11-04T12:42:14.269Z,10.43
2022-11-04T12:44:45.847Z,11.23
2022-11-04T12:47:34.603Z,11.27
2022-11-04T12:50:32.292Z,10.88
2022-11-04T12:53:24.081Z,11.10
2022-11-04T12:56:14.690Z,10.52
2022-11-04T12:58:50.542Z,10.80
2022-11-04T13:01:25.679Z,11.30
2022-11-04T13:04:03.720Z,11.35
2022-11-04T13:06:41.388Z,10.43
2022-11-04T13:09:20.503Z,12.93
2022-11-04T13:12:04.062Z,10.90
2022-11-04T13:14:43.413Z,11.52
2022-11-04T13:17:16.205Z,11.13
2022-11-04T13:19:50.259Z,11.98
2022-11-04T13:22:23.802Z,11.18
2022-11-04T13:24:57.175Z,12.27
2022-11-04T13:27:36.505Z,11.85
2022-11-04T13:32:59.655Z,10.95
2022-11-04T13:35:40.162Z,11.93
2022-11-04T13:38:21.977Z,11.68
2022-11-04T13:41:08.878Z,11.85
2022-11-04T13:43:41.894Z,12.27
2022-11-04T13:46:08.769Z,11.88
2022-11-04T13:48:39.667Z,11.13
2022-11-04T13:51:14.573Z,11.20
2022-11-04T13:53:53.914Z,12.05
2022-11-04T13:56:35.225Z,10.73
2022-11-04T13:59:22.564Z,10.75
2022-11-04T14:02:09.757Z,10.90
2022-11-04T14:04:40.522Z,12.07
2022-11-04T14:07:10.753Z,11.60
2022-11-04T14:09:43.585Z,11.45
2022-11-04T14:12:10.321Z,11.15
2022-11-04T14:14:38.928Z,11.30
2022-11-04T14:17:34.488Z,11.97
2022-11-04T14:20:23.481Z,11.15
2022-11-04T14:22:54.753Z,11.05
2022-11-04T14:25:27.357Z,11.07
2022-11-04T14:28:00.459Z,11.73
2022-11-04T14:30:30.483Z,12.13
2022-11-04T14:33:01.289Z,11.93
2022-11-04T14:35:29.374Z,10.95
2022-11-04T14:37:58.281Z,11.35
2022-11-04T14:40:46.851Z,11.45
2022-11-04T14:43:42.013Z,12.20
2022-11-04T14:46:12.104Z,11.75
2022-11-04T14:48:51.956Z,10.82
2022-11-04T14:51:30.653Z,12.10
2022-11-04T14:54:08.331Z,11.45
2022-11-04T14:56:35.446Z,11.40
2022-11-04T14:59:07.064Z,13.02
2022-11-04T15:01:40.200Z,12.40
2022-11-04T15:04:18.382Z,12.20
2022-11-04T15:07:03.534Z,12.15
2022-11-04T15:09:33.211Z,12.38
2022-11-04T15:12:27.677Z,12.23
2022-11-04T15:14:55.377Z,12.25
2022-11-04T15:17:24.643Z,12.90
2022-11-04T15:19:56.419Z,12.02
2022-11-04T15:22:24.279Z,10.70
2022-11-04T15:24:51.312Z,12.23
2022-11-04T15:27:25.049Z,11.18
2022-11-04T15:30:00.652Z,11.90
2022-11-04T15:32:27.878Z,13.60
2022-11-04T15:34:56.948Z,12.07
2022-11-04T15:37:26.230Z,12.55
2022-11-04T15:39:56.676Z,12.18
2022-11-04T15:42:45.521Z,12.98
2022-11-04T15:45:22.794Z,12.50
2022-11-04T15:48:10.146Z,12.43
2022-11-04T15:50:38.601Z,12.25
2022-11-04T15:53:09.951Z,13.20
2022-11-04T15:55:38.160Z,14.73
2022-11-04T15:58:05.106Z,15.93
2022-11-04T16:00:34.113Z,14.18
2022-11-04T16:03:01.843Z,15.75
2022-11-04T16:05:29.817Z,14.55
2022-11-04T16:08:18.965Z,14.05
2022-11-04T16:10:46.147Z,14.00
2022-11-04T16:13:16.113Z,13.60
2022-11-04T16:15:50.416Z,13.65
2022-11-04T16:18:35.252Z,14.07
2022-11-04T16:21:08.981Z,12.65
2022-11-04T16:23:44.722Z,14.15
2022-11-04T16:26:12.598Z,14.18
2022-11-04T16:28:40.865Z,14.15
2022-11-04T16:31:26.017Z,13.60
2022-11-04T16:33:52.823Z,14.25
2022-11-04T16:36:29.702Z,13.90
2022-11-04T16:39:06.910Z,13.93
2022-11-04T16:41:37.527Z,13.98
2022-11-04T16:44:06.238Z,13.25
2022-11-04T16:46:34.299Z,14.85
2022-11-04T16:49:02.351Z,13.68
2022-11-04T16:51:33.491Z,13.82
2022-11-04T16:54:00.373Z,13.63
2022-11-04T16:56:27.459Z,13.23
2022-11-04T16:58:54.804Z,14.05
2022-11-04T17:01:21.941Z,13.75
2022-11-04T17:03:49.952Z,14.10
2022-11-04T17:06:17.275Z,13.40
2022-11-04T17:08:45.735Z,13.32
2022-11-04T17:11:12.656Z,12.15
2022-11-04T17:13:39.789Z,14.20
2022-11-04T17:16:08.448Z,12.70
2022-11-04T17:18:36.572Z,13.55
2022-11-04T17:21:07.276Z,12.77
2022-11-04T17:23:34.510Z,13.75
2022-11-04T17:26:01.479Z,13.02
2022-11-04T17:28:28.571Z,13.05
2022-11-04T17:30:55.571Z,14.15
2022-11-04T17:33:22.552Z,14.55
2022-11-04T17:35:50.820Z,13.60
2022-11-04T17:38:18.816Z,14.15
2022-11-04T17:41:04.186Z,13.70
2022-11-04T17:43:50.220Z,14.02
2022-11-04T17:46:38.180Z,14.65
2022-11-04T17:49:07.266Z,12.93
2022-11-04T17:51:35.347Z,14.02
2022-11-04T17:54:03.085Z,14.13
2022-11-04T17:56:31.127Z,14.05
2022-11-04T17:59:04.004Z,13.80
2022-11-04T18:01:33.291Z,13.65
2022-11-04T18:04:00.471Z,14.55
2022-11-04T18:06:30.992Z,14.57
2022-11-04T18:08:59.361Z,14.23
2022-11-04T18:11:47.147Z,14.75
2022-11-04T18:14:17.189Z,15.13
2022-11-04T18:16:47.343Z,14.70
2022-11-04T18:19:16.159Z,13.27
2022-11-04T18:21:42.970Z,16.15
2022-11-04T18:24:10.437Z,14.95
2022-11-04T18:26:40.083Z,15.10
2022-11-04T18:29:07.193Z,15.48
2022-11-04T18:31:36.526Z,16.77
2022-11-04T18:34:07.654Z,15.55
2022-11-04T18:36:35.676Z,15.43
2022-11-04T18:39:02.593Z,15.85
2022-11-04T18:41:29.549Z,15.13
2022-11-04T18:43:57.353Z,16.80
2022-11-04T18:46:24.423Z,15.30
2022-11-04T18:48:52.047Z,14.07
2022-11-04T18:51:22.411Z,16.80
2022-11-04T18:53:50.704Z,18.23
2022-11-04T18:56:20.850Z,17.80
2022-11-04T18:58:48.692Z,17.13
2022-11-04T19:01:28.212Z,16.75
2022-11-04T19:03:55.767Z,16.23
2022-11-04T19:06:26.185Z,17.42
2022-11-04T19:09:05.064Z,16.45
2022-11-04T19:11:39.767Z,15.85
2022-11-04T19:14:14.302Z,16.30
2022-11-04T19:16:43.274Z,16.92
2022-11-04T19:19:15.200Z,16.15
2022-11-04T19:21:42.329Z,17.15
2022-11-04T19:24:10.178Z,17.42
2022-11-04T19:26:37.186Z,16.80
2022-11-04T19:29:05.873Z,16.35
2022-11-04T19:31:33.383Z,16.10
2022-11-04T19:34:05.005Z,16.52
2022-11-04T19:36:34.046Z,16.33
2022-11-04T19:41:47.483Z,17.67
2022-11-04T19:44:17.909Z,16.83
2022-11-04T19:46:45.823Z,16.52
2022-11-04T19:49:13.075Z,22.40
2022-11-04T19:51:40.536Z,17.42
2022-11-04T19:54:08.170Z,18.73
2022-11-04T19:56:36.516Z,17.33
2022-11-04T19:59:06.487Z,18.77
2022-11-04T20:01:35.298Z,17.95
2022-11-04T20:04:03.935Z,17.00
2022-11-04T20:06:32.243Z,17.15
2022-11-04T20:09:02.013Z,16.90
2022-11-04T20:11:29.091Z,18.65
2022-11-04T20:13:55.893Z,16.65
2022-11-04T20:16:29.599Z,18.13
2022-11-04T20:19:00.682Z,17.63
2022-11-04T20:21:30.490Z,17.33
2022-11-04T20:23:59.658Z,19.30
2022-11-04T20:26:28.378Z,19.77
2022-11-04T20:28:58.494Z,17.35
2022-11-04T20:31:27.980Z,17.48
2022-11-04T20:36:25.768Z,17.35
2022-11-04T20:39:00.291Z,18.23
2022-11-04T20:41:28.110Z,18.52
2022-11-04T20:43:55.963Z,19.80
2022-11-04T20:46:25.694Z,17.58
2022-11-04T20:48:54.066Z,18.00
2022-11-04T20:51:23.307Z,21.17
2022-11-04T20:53:56.052Z,20.88
2022-11-04T20:56:25.309Z,18.88
2022-11-04T20:58:59.019Z,29.65
2022-11-04T21:01:32.209Z,19.80
2022-11-04T21:04:03.322Z,20.90
2022-11-04T21:06:30.801Z,19.67
2022-11-04T21:08:59.361Z,19.42
2022-11-04T21:11:31.902Z,18.90
2022-11-04T21:13:59.853Z,19.23
2022-11-04T21:16:27.325Z,19.23
2022-11-04T21:18:54.626Z,20.17
2022-11-04T21:21:21.454Z,18.92
2022-11-04T21:23:50.382Z,20.45
2022-11-04T21:26:23.268Z,20.05
2022-11-04T21:28:58.693Z,18.40
2022-11-04T21:31:25.680Z,19.75
2022-11-04T21:33:53.480Z,19.40
2022-11-04T21:36:22.407Z,18.98
2022-11-04T21:38:49.770Z,19.92
2022-11-04T21:41:22.179Z,19.55
2022-11-04T21:43:54.174Z,20.02
2022-11-04T21:46:21.631Z,19.85
2022-11-04T21:48:48.576Z,19.27
2022-11-04T21:51:18.555Z,19.42
2022-11-04T21:53:45.696Z,20.25
2022-11-04T21:56:18.947Z,20.67
2022-11-04T21:58:46.102Z,21.13
2022-11-04T22:01:18.309Z,20.65
2022-11-04T22:03:49.924Z,19.83
2022-11-04T22:06:17.049Z,21.13
2022-11-04T22:08:46.676Z,21.13
2022-11-04T22:11:14.995Z,19.63
2022-11-04T22:13:42.042Z,20.58
2022-11-04T22:16:13.208Z,20.45
2022-11-04T22:18:40.402Z,20.42
2022-11-04T22:21:10.312Z,19.92
2022-11-04T22:23:37.734Z,21.05
2022-11-04T22:26:27.650Z,20.55
2022-11-04T22:28:57.073Z,21.05
2022-11-04T22:31:27.067Z,20.70
2022-11-04T22:33:55.097Z,21.25
2022-11-04T22:36:23.325Z,21.33
2022-11-04T22:38:50.649Z,21.33
2022-11-04T22:41:23.972Z,21.98
2022-11-04T22:43:51.042Z,21.20
2022-11-04T22:46:21.242Z,21.00
2022-11-04T22:48:48.557Z,20.33
2022-11-04T22:51:15.668Z,21.77
2022-11-04T22:53:43.199Z,21.30
2022-11-04T22:56:12.073Z,20.73
2022-11-04T22:58:39.676Z,20.92
2022-11-04T23:01:14.263Z,20.88
2022-11-04T23:03:41.881Z,22.45
2022-11-04T23:06:10.265Z,20.67
2022-11-04T23:08:40.252Z,21.90
2022-11-04T23:11:28.185Z,21.65
2022-11-04T23:14:20.456Z,21.17
2022-11-04T23:17:08.908Z,21.00
2022-11-04T23:19:37.378Z,21.60
2022-11-04T23:22:23.428Z,20.58
2022-11-04T23:25:05.926Z,21.90
2022-11-04T23:27:52.561Z,25.02
2022-11-04T23:30:25.741Z,22.17
2022-11-04T23:33:03.406Z,22.15
2022-11-04T23:35:56.370Z,21.73
2022-11-04T23:38:25.166Z,23.60
2022-11-04T23:41:13.689Z,21.65
2022-11-04T23:43:41.043Z,22.38
2022-11-04T23:46:26.452Z,21.90
2022-11-04T23:49:11.949Z,21.58
2022-11-04T23:51:57.759Z,22.67
2022-11-04T23:54:43.617Z,21.65
2022-11-04T23:57:38.128Z,22.67
